createdAt,value
2022-11-23T00:02:04.677Z,31.98
2022-11-23T00:04:34.990Z,30.25
2022-11-23T00:07:03.433Z,33.42
2022-11-23T00:13:19.176Z,32.90
2022-11-23T00:15:47.565Z,30.45
2022-11-23T00:18:16.774Z,25.05
2022-11-23T00:20:47.011Z,29.63
2022-11-23T00:23:18.096Z,28.02
2022-11-23T00:25:47.423Z,30.77
2022-11-23T00:28:16.710Z,29.75
2022-11-23T00:30:51.286Z,27.80
2022-11-23T00:33:19.861Z,24.23
2022-11-23T00:35:49.947Z,25.98
2022-11-23T00:38:20.389Z,28.85
2022-11-23T00:40:50.687Z,30.25
2022-11-23T00:43:19.554Z,34.38
2022-11-23T00:45:51.342Z,32.13
2022-11-23T00:48:19.639Z,28.10
2022-11-23T00:50:49.990Z,28.88
2022-11-23T00:53:18.781Z,25.88
2022-11-23T00:55:53.323Z,26.70
2022-11-23T00:58:25.726Z,25.15
2022-11-23T01:01:02.822Z,24.67
2022-11-23T01:03:32.407Z,20.17
2022-11-23T01:06:07.875Z,25.80
2022-11-23T01:08:37.509Z,21.70
2022-11-23T01:11:07.912Z,23.80
2022-11-23T01:13:38.106Z,21.58
2022-11-23T01:16:09.352Z,28.58
2022-11-23T01:18:37.856Z,32.55
2022-11-23T01:21:07.809Z,32.28
2022-11-23T01:23:37.281Z,27.13
2022-11-23T01:26:07.585Z,32.05
2022-11-23T01:28:37.869Z,25.77
2022-11-23T01:31:08.844Z,33.67
2022-11-23T01:33:37.951Z,29.38
2022-11-23T01:36:16.970Z,31.15
2022-11-23T01:38:46.740Z,38.85
2022-11-23T01:41:17.342Z,33.03
2022-11-23T01:43:46.809Z,27.40
2022-11-23T01:46:15.185Z,27.90
2022-11-23T01:48:48.471Z,30.70
2022-11-23T01:51:22.613Z,30.25
2022-11-23T01:53:55.157Z,24.55
2022-11-23T01:56:31.828Z,20.42
2022-11-23T01:59:02.189Z,22.60
2022-11-23T02:01:31.876Z,25.52
2022-11-23T02:04:02.942Z,23.30
2022-11-23T02:06:34.042Z,28.33
2022-11-23T02:09:04.115Z,25.98
2022-11-23T02:11:32.293Z,24.75
2022-11-23T02:14:00.684Z,22.80
2022-11-23T02:16:31.943Z,24.00
2022-11-23T02:19:00.780Z,23.38
2022-11-23T02:21:29.261Z,30.27
2022-11-23T02:24:06.114Z,27.75
2022-11-23T02:26:39.191Z,23.75
2022-11-23T02:29:12.788Z,28.27
2022-11-23T02:31:40.914Z,25.92
2022-11-23T02:34:09.005Z,27.85
2022-11-23T02:36:40.945Z,25.25
2022-11-23T02:39:12.585Z,23.38
2022-11-23T02:41:44.683Z,25.00
2022-11-23T02:44:33.904Z,30.15
2022-11-23T02:47:02.261Z,24.95
2022-11-23T02:49:30.798Z,23.48
2022-11-23T02:51:59.107Z,24.02
2022-11-23T02:54:27.963Z,19.40
2022-11-23T02:56:57.487Z,22.70
2022-11-23T02:59:25.724Z,22.67
2022-11-23T03:01:54.875Z,23.08
2022-11-23T03:04:27.546Z,21.83
2022-11-23T03:06:56.300Z,24.63
2022-11-23T03:09:26.338Z,28.42
2022-11-23T03:11:54.986Z,29.05
2022-11-23T03:14:25.889Z,26.23
2022-11-23T03:16:59.495Z,23.20
2022-11-23T03:19:28.875Z,23.40
2022-11-23T03:21:57.501Z,28.77
2022-11-23T03:24:25.571Z,28.10
2022-11-23T03:26:55.476Z,28.90
2022-11-23T03:29:26.589Z,29.48
2022-11-23T03:31:56.578Z,28.27
2022-11-23T03:34:25.934Z,20.67
2022-11-23T03:36:54.011Z,26.45
2022-11-23T03:39:22.195Z,25.98
2022-11-23T03:41:50.279Z,28.63
2022-11-23T03:44:20.359Z,28.63
2022-11-23T03:46:51.509Z,24.60
2022-11-23T03:49:19.513Z,24.85
2022-11-23T03:51:47.522Z,25.45
2022-11-23T03:54:15.889Z,22.35
2022-11-23T03:56:44.169Z,31.60
2022-11-23T03:59:12.459Z,22.73
2022-11-23T04:01:40.754Z,22.98
2022-11-23T04:04:16.061Z,20.10
2022-11-23T04:07:13.636Z,26.70
2022-11-23T04:09:48.148Z,28.35
2022-11-23T04:12:38.871Z,22.75
2022-11-23T04:15:09.415Z,30.45
2022-11-23T04:17:37.904Z,30.65
2022-11-23T04:20:09.341Z,28.70
2022-11-23T04:22:38.074Z,33.20
2022-11-23T04:25:06.906Z,33.83
2022-11-23T04:27:35.030Z,28.05
2022-11-23T04:30:04.758Z,31.60
2022-11-23T04:32:33.518Z,26.35
2022-11-23T04:35:01.905Z,27.08
2022-11-23T04:37:31.393Z,24.67
2022-11-23T04:39:59.445Z,23.55
2022-11-23T04:42:38.662Z,34.72
2022-11-23T04:45:08.450Z,21.85
2022-11-23T04:47:37.309Z,23.10
2022-11-23T04:50:10.718Z,27.23
2022-11-23T04:52:40.394Z,27.25
2022-11-23T04:55:14.407Z,27.45
2022-11-23T04:57:50.662Z,38.33
2022-11-23T05:00:19.270Z,49.00
2022-11-23T05:02:48.967Z,32.08
2022-11-23T05:05:26.621Z,42.38
2022-11-23T05:07:58.874Z,36.17
2022-11-23T05:10:37.739Z,41.80
2022-11-23T05:13:06.648Z,33.63
2022-11-23T05:15:34.617Z,28.50
2022-11-23T05:18:03.615Z,27.42
2022-11-23T05:20:32.413Z,21.90
2022-11-23T05:23:01.992Z,22.08
2022-11-23T05:25:31.625Z,24.48
2022-11-23T05:28:16.676Z,29.40
2022-11-23T05:30:51.901Z,33.17
2022-11-23T05:33:20.233Z,26.77
2022-11-23T05:35:49.493Z,24.55
2022-11-23T05:38:21.309Z,27.65
2022-11-23T05:40:49.436Z,29.42
2022-11-23T05:43:17.729Z,30.42
2022-11-23T05:45:45.924Z,34.20
2022-11-23T05:48:15.782Z,32.22
2022-11-23T05:50:55.443Z,38.08
2022-11-23T05:53:35.990Z,30.60
2022-11-23T05:56:30.070Z,26.63
2022-11-23T05:59:16.854Z,28.10
2022-11-23T06:01:49.899Z,25.30
2022-11-23T06:04:25.252Z,37.13
2022-11-23T06:06:54.673Z,30.15
2022-11-23T06:09:24.099Z,29.25
2022-11-23T06:11:54.649Z,33.67
2022-11-23T06:14:23.083Z,25.17
2022-11-23T06:16:52.409Z,31.80
2022-11-23T06:19:33.801Z,34.67
2022-11-23T06:22:03.112Z,26.27
2022-11-23T06:24:36.438Z,28.20
2022-11-23T06:27:22.973Z,34.45
2022-11-23T06:29:52.384Z,31.80
2022-11-23T06:32:22.032Z,30.65
2022-11-23T06:34:50.099Z,28.52
2022-11-23T06:37:18.979Z,28.65
2022-11-23T06:39:54.378Z,32.47
2022-11-23T06:42:39.807Z,26.33
2022-11-23T06:45:18.305Z,30.35
2022-11-23T06:47:47.952Z,25.42
2022-11-23T06:50:17.139Z,25.00
2022-11-23T06:52:47.294Z,22.85
2022-11-23T06:55:16.980Z,33.13
2022-11-23T06:57:45.144Z,32.47
2022-11-23T07:00:15.621Z,33.88
2022-11-23T07:02:45.270Z,27.48
2022-11-23T07:05:16.499Z,28.75
2022-11-23T07:07:44.982Z,29.27
2022-11-23T07:10:21.874Z,34.28
2022-11-23T07:12:53.805Z,27.75
2022-11-23T07:15:23.466Z,30.60
2022-11-23T07:17:53.171Z,37.13
2022-11-23T07:20:23.354Z,27.65
2022-11-23T07:23:01.498Z,34.28
2022-11-23T07:25:31.570Z,30.98
2022-11-23T07:28:02.730Z,32.95
2022-11-23T07:30:32.643Z,29.42
2022-11-23T07:33:02.240Z,32.13
2022-11-23T07:35:31.779Z,26.75
2022-11-23T07:38:00.654Z,30.77
2022-11-23T07:40:29.393Z,28.35
2022-11-23T07:43:02.269Z,28.83
2022-11-23T07:45:31.706Z,35.00
2022-11-23T07:48:03.217Z,27.67
2022-11-23T07:50:31.653Z,30.42
2022-11-23T07:53:00.127Z,33.15
2022-11-23T07:55:28.494Z,28.45
2022-11-23T07:57:56.549Z,34.10
2022-11-23T08:00:28.922Z,24.65
2022-11-23T08:03:26.038Z,26.88
2022-11-23T08:05:47.322Z,30.27
2022-11-23T08:08:15.326Z,32.88
2022-11-23T08:10:46.265Z,27.30
2022-11-23T08:13:19.057Z,28.70
2022-11-23T08:15:53.956Z,31.00
2022-11-23T08:18:24.508Z,25.73
2022-11-23T08:20:52.653Z,30.35
2022-11-23T08:23:21.501Z,26.60
2022-11-23T08:25:49.542Z,30.35
2022-11-23T08:28:18.035Z,28.67
2022-11-23T08:30:46.260Z,32.22
2022-11-23T08:33:16.976Z,31.20
2022-11-23T08:35:45.332Z,26.70
2022-11-23T08:38:13.604Z,24.98
2022-11-23T08:40:41.917Z,27.00
2022-11-23T08:43:09.947Z,25.95
2022-11-23T08:45:38.267Z,30.75
2022-11-23T08:48:07.510Z,27.38
2022-11-23T08:50:37.261Z,29.65
2022-11-23T08:53:05.763Z,31.55
2022-11-23T08:55:34.086Z,55.08
2022-11-23T08:58:02.428Z,28.00
2022-11-23T09:00:31.080Z,24.50
2022-11-23T09:03:00.513Z,26.70
2022-11-23T09:05:29.571Z,22.80
2022-11-23T09:08:01.078Z,28.45
2022-11-23T09:10:29.747Z,24.05
2022-11-23T09:12:57.817Z,25.33
2022-11-23T09:15:26.161Z,25.70
2022-11-23T09:17:54.411Z,21.70
2022-11-23T09:20:22.519Z,20.08
2022-11-23T09:22:54.891Z,19.38
2022-11-23T09:25:25.170Z,19.67
2022-11-23T09:27:58.542Z,22.30
2022-11-23T09:30:26.813Z,19.50
2022-11-23T09:32:56.570Z,20.38
2022-11-23T09:35:25.424Z,19.80
2022-11-23T09:37:57.131Z,20.58
2022-11-23T09:40:29.865Z,25.15
2022-11-23T09:43:12.012Z,20.02
2022-11-23T09:45:47.355Z,20.70
2022-11-23T09:48:38.285Z,20.75
2022-11-23T09:51:15.813Z,16.58
2022-11-23T09:53:49.532Z,19.40
2022-11-23T09:56:23.643Z,16.65
2022-11-23T09:58:55.969Z,20.40
2022-11-23T10:01:24.535Z,21.15
2022-11-23T10:03:53.149Z,18.95
2022-11-23T10:06:24.075Z,17.35
2022-11-23T10:09:13.868Z,20.88
2022-11-23T10:12:21.007Z,18.67
2022-11-23T10:15:02.870Z,18.15
2022-11-23T10:17:51.124Z,17.45
2022-11-23T10:20:35.085Z,26.70
2022-11-23T10:23:05.538Z,18.38
2022-11-23T10:25:40.774Z,21.05
2022-11-23T10:28:14.472Z,20.88
2022-11-23T10:30:46.679Z,20.20
2022-11-23T10:33:25.023Z,16.50
2022-11-23T10:35:53.613Z,14.45
2022-11-23T10:38:23.082Z,17.05
2022-11-23T10:41:01.843Z,21.80
2022-11-23T10:43:33.652Z,20.85
2022-11-23T10:46:40.422Z,21.90
2022-11-23T10:49:18.464Z,22.38
2022-11-23T10:51:52.099Z,19.63
2022-11-23T10:54:24.712Z,16.02
2022-11-23T10:56:54.689Z,18.60
2022-11-23T10:59:33.932Z,17.58
2022-11-23T11:02:14.736Z,16.52
2022-11-23T11:04:44.857Z,16.60
2022-11-23T11:07:24.042Z,19.52
2022-11-23T11:10:05.167Z,18.02
2022-11-23T11:12:35.578Z,18.35
2022-11-23T11:15:15.819Z,18.85
2022-11-23T11:17:44.461Z,20.20
2022-11-23T11:20:34.123Z,18.45
2022-11-23T11:23:05.245Z,16.27
2022-11-23T11:25:36.210Z,21.77
2022-11-23T11:28:07.659Z,16.88
2022-11-23T11:30:47.165Z,14.02
2022-11-23T11:33:21.065Z,17.15
2022-11-23T11:35:53.657Z,16.45
2022-11-23T11:38:29.911Z,16.00
2022-11-23T11:41:01.750Z,16.48
2022-11-23T11:43:39.553Z,16.58
2022-11-23T11:46:31.290Z,18.80
2022-11-23T11:49:07.737Z,18.48
2022-11-23T11:51:41.333Z,16.50
2022-11-23T11:54:19.693Z,20.50
2022-11-23T11:56:51.085Z,16.80
2022-11-23T11:59:27.174Z,18.50
2022-11-23T12:02:01.524Z,17.42
2022-11-23T12:04:38.768Z,17.92
2022-11-23T12:07:15.449Z,16.27
2022-11-23T12:09:48.501Z,17.63
2022-11-23T12:12:19.447Z,20.05
2022-11-23T12:14:48.000Z,16.67
2022-11-23T12:18:04.816Z,17.17
2022-11-23T12:20:45.862Z,17.10
2022-11-23T12:23:26.072Z,17.05
2022-11-23T12:26:07.934Z,16.83
2022-11-23T12:28:52.394Z,21.10
2022-11-23T12:31:39.296Z,16.27
2022-11-23T12:34:38.025Z,19.95
2022-11-23T12:37:30.351Z,26.42
2022-11-23T12:40:20.748Z,22.30
2022-11-23T12:42:52.827Z,20.65
2022-11-23T12:45:54.570Z,18.40
2022-11-23T12:48:50.847Z,17.58
2022-11-23T12:51:28.074Z,20.52
2022-11-23T12:54:13.704Z,17.20
2022-11-23T12:56:57.112Z,19.38
2022-11-23T12:59:27.207Z,23.75
2022-11-23T13:02:00.278Z,26.13
2022-11-23T13:04:48.494Z,24.42
2022-11-23T13:07:57.081Z,20.52
2022-11-23T13:10:36.908Z,24.00
2022-11-23T13:13:29.050Z,24.75
2022-11-23T13:16:15.957Z,25.38
2022-11-23T13:19:02.978Z,21.30
2022-11-23T13:21:37.961Z,23.13
2022-11-23T13:24:25.163Z,20.02
2022-11-23T13:27:31.796Z,25.73
2022-11-23T13:30:11.115Z,27.75
2022-11-23T13:32:55.036Z,23.63
2022-11-23T13:35:56.084Z,25.20
2022-11-23T13:38:43.613Z,20.63
2022-11-23T13:41:57.362Z,23.98
2022-11-23T13:44:29.458Z,24.15
2022-11-23T13:47:05.510Z,23.17
2022-11-23T13:49:39.042Z,18.63
2022-11-23T13:52:28.231Z,17.70
2022-11-23T13:55:05.583Z,26.45
2022-11-23T13:57:37.871Z,25.15
2022-11-23T14:00:43.666Z,22.75
2022-11-23T14:03:51.786Z,23.30
2022-11-23T14:06:24.948Z,22.98
2022-11-23T14:09:00.347Z,22.13
2022-11-23T14:11:29.670Z,21.80
2022-11-23T14:14:01.949Z,20.52
2022-11-23T14:16:54.059Z,21.23
2022-11-23T14:19:33.820Z,26.33
2022-11-23T14:22:09.432Z,32.85
2022-11-23T14:24:53.673Z,24.95
2022-11-23T14:27:51.434Z,22.23
2022-11-23T14:30:40.071Z,22.92
2022-11-23T14:33:23.109Z,26.90
2022-11-23T14:36:04.257Z,23.00
2022-11-23T14:39:05.631Z,24.17
2022-11-23T14:41:36.398Z,26.42
2022-11-23T14:44:07.021Z,23.13
2022-11-23T14:46:35.082Z,25.88
2022-11-23T14:49:07.959Z,28.60
2022-11-23T14:51:43.164Z,28.73
2022-11-23T14:54:12.988Z,24.85
2022-11-23T14:56:45.440Z,30.33
2022-11-23T14:59:23.470Z,27.90
2022-11-23T15:01:53.420Z,21.48
2022-11-23T15:04:29.272Z,28.02
2022-11-23T15:07:05.161Z,30.25
2022-11-23T15:09:46.073Z,32.03
2022-11-23T15:12:23.485Z,29.70
2022-11-23T15:14:52.437Z,34.70
2022-11-23T15:17:22.236Z,36.83
2022-11-23T15:19:58.316Z,31.40
2022-11-23T15:22:28.994Z,31.80
2022-11-23T15:25:08.110Z,33.97
2022-11-23T15:27:41.418Z,43.25
2022-11-23T15:30:16.672Z,29.92
2022-11-23T15:32:45.010Z,26.85
2022-11-23T15:35:16.945Z,28.38
2022-11-23T15:37:48.918Z,27.02
2022-11-23T15:40:18.999Z,30.13
2022-11-23T15:42:49.741Z,24.73
2022-11-23T15:45:39.214Z,29.35
2022-11-23T15:48:14.058Z,43.25
2022-11-23T15:50:50.617Z,33.53
2022-11-23T15:53:22.170Z,90.30
2022-11-23T15:55:51.149Z,132.93
2022-11-23T15:58:20.724Z,114.25
2022-11-23T16:00:52.760Z,58.15
2022-11-23T16:03:33.833Z,39.65
2022-11-23T16:06:28.544Z,54.03
2022-11-23T16:08:57.867Z,31.67
2022-11-23T16:11:32.575Z,29.05
2022-11-23T16:14:19.132Z,26.05
2022-11-23T16:16:49.791Z,26.70
2022-11-23T16:19:24.136Z,27.13
2022-11-23T16:22:01.747Z,35.78
2022-11-23T16:24:35.394Z,29.95
2022-11-23T16:27:14.071Z,37.15
2022-11-23T16:29:42.566Z,36.10
2022-11-23T16:32:23.734Z,37.17
2022-11-23T16:34:52.492Z,36.72
2022-11-23T16:37:21.151Z,35.83
2022-11-23T16:39:50.559Z,32.50
2022-11-23T16:42:19.208Z,38.53
2022-11-23T16:44:47.585Z,33.88
2022-11-23T16:47:24.510Z,34.25
2022-11-23T16:49:53.506Z,38.65
2022-11-23T16:52:22.798Z,43.38
2022-11-23T16:54:53.619Z,41.90
2022-11-23T16:57:28.869Z,39.10
2022-11-23T16:59:57.880Z,38.47
2022-11-23T17:03:34.685Z,36.17
2022-11-23T17:06:03.122Z,37.10
2022-11-23T17:08:31.420Z,35.80
2022-11-23T17:11:00.883Z,35.75
2022-11-23T17:13:30.487Z,42.72
2022-11-23T17:15:58.513Z,40.88
2022-11-23T17:18:26.550Z,46.45
2022-11-23T17:20:55.987Z,41.17
2022-11-23T17:23:24.028Z,36.92
2022-11-23T17:25:52.287Z,39.78
2022-11-23T17:28:22.346Z,45.35
2022-11-23T17:30:51.045Z,36.05
2022-11-23T17:33:19.166Z,43.78
2022-11-23T17:35:47.907Z,31.95
2022-11-23T17:38:18.260Z,36.65
2022-11-23T17:40:46.755Z,36.13
2022-11-23T17:43:15.560Z,31.77
2022-11-23T17:45:46.053Z,38.60
2022-11-23T17:48:16.973Z,38.70
2022-11-23T17:50:47.377Z,50.28
2022-11-23T17:53:16.740Z,48.35
2022-11-23T17:55:46.245Z,40.75
2022-11-23T17:58:14.407Z,45.70
2022-11-23T18:00:44.316Z,38.70
2022-11-23T18:03:12.459Z,31.80
2022-11-23T18:05:40.604Z,31.92
2022-11-23T18:08:09.281Z,43.55
2022-11-23T18:10:37.377Z,40.25
2022-11-23T18:13:05.568Z,35.28
2022-11-23T18:15:33.786Z,42.30
2022-11-23T18:18:04.995Z,46.72
2022-11-23T18:20:33.253Z,40.65
2022-11-23T18:23:01.345Z,44.92
2022-11-23T18:25:29.628Z,49.60
2022-11-23T18:27:57.626Z,60.08
2022-11-23T18:30:25.727Z,48.40
2022-11-23T18:32:53.769Z,49.42
2022-11-23T18:35:23.392Z,46.60
2022-11-23T18:37:51.615Z,59.58
2022-11-23T18:40:19.654Z,50.58
2022-11-23T18:42:48.035Z,46.05
2022-11-23T18:45:16.018Z,53.80
2022-11-23T18:47:44.085Z,67.50
2022-11-23T18:50:12.127Z,51.03
2022-11-23T18:52:41.693Z,54.55
2022-11-23T18:55:09.873Z,54.08
2022-11-23T18:57:37.859Z,49.95
2022-11-23T19:00:08.117Z,63.35
2022-11-23T19:02:37.527Z,49.33
2022-11-23T19:05:06.105Z,51.35
2022-11-23T19:07:34.212Z,54.20
2022-11-23T19:10:03.841Z,58.50
2022-11-23T19:12:32.096Z,47.28
2022-11-23T19:15:00.178Z,55.15
2022-11-23T19:17:28.363Z,60.03
2022-11-23T19:19:56.765Z,59.97
2022-11-23T19:22:25.128Z,54.25
2022-11-23T19:24:53.256Z,53.70
2022-11-23T19:27:22.922Z,60.88
2022-11-23T19:29:51.930Z,71.32
2022-11-23T19:32:20.430Z,63.97
2022-11-23T19:34:48.486Z,58.70
2022-11-23T19:37:16.622Z,50.15
2022-11-23T19:39:44.795Z,68.68
2022-11-23T19:42:12.788Z,55.67
2022-11-23T19:44:42.341Z,53.67
2022-11-23T19:47:16.376Z,62.58
2022-11-23T19:49:47.137Z,50.55
2022-11-23T19:52:15.301Z,50.08
2022-11-23T19:54:43.365Z,59.20
2022-11-23T19:57:11.362Z,50.90
2022-11-23T19:59:39.839Z,51.13
2022-11-23T20:02:11.887Z,38.05
2022-11-23T20:04:40.089Z,42.75
2022-11-23T20:07:08.117Z,48.08
2022-11-23T20:09:36.455Z,50.47
2022-11-23T20:12:04.847Z,44.05
2022-11-23T20:14:33.014Z,56.40
2022-11-23T20:17:01.088Z,53.55
2022-11-23T20:19:30.958Z,49.55
2022-11-23T20:21:59.164Z,58.85
2022-11-23T20:24:27.179Z,52.15
2022-11-23T20:26:55.468Z,45.67
2022-11-23T20:29:23.552Z,50.88
2022-11-23T20:31:52.147Z,45.35
2022-11-23T20:34:24.028Z,59.53
2022-11-23T20:36:55.658Z,47.60
2022-11-23T20:39:23.716Z,48.05
2022-11-23T20:41:51.785Z,46.35
2022-11-23T20:44:20.970Z,49.45
2022-11-23T20:47:04.474Z,44.70
2022-11-23T20:49:33.321Z,58.00
2022-11-23T20:52:03.046Z,50.70
2022-11-23T20:54:32.644Z,56.60
2022-11-23T20:57:00.905Z,41.35
2022-11-23T20:59:29.449Z,36.80
2022-11-23T21:01:57.751Z,45.25
2022-11-23T21:04:26.284Z,43.20
2022-11-23T21:06:54.660Z,46.88
2022-11-23T21:09:24.214Z,41.05
2022-11-23T21:12:09.872Z,40.92
2022-11-23T21:14:38.134Z,48.65
2022-11-23T21:17:06.685Z,43.83
2022-11-23T21:19:36.645Z,38.80
2022-11-23T21:22:07.635Z,48.40
2022-11-23T21:24:37.873Z,44.33
2022-11-23T21:27:07.871Z,39.40
2022-11-23T21:29:35.820Z,44.65
2022-11-23T21:32:04.060Z,42.90
2022-11-23T21:34:32.618Z,39.00
2022-11-23T21:37:01.902Z,35.88
2022-11-23T21:39:31.981Z,36.30
2022-11-23T21:42:01.698Z,36.50
2022-11-23T21:44:29.730Z,36.97
2022-11-23T21:46:57.936Z,42.72
2022-11-23T21:49:28.664Z,36.35
2022-11-23T21:51:57.064Z,40.13
2022-11-23T21:54:25.124Z,41.75
2022-11-23T21:56:53.130Z,44.42
2022-11-23T21:59:23.362Z,31.60
2022-11-23T22:01:51.389Z,41.53
2022-11-23T22:04:19.590Z,34.05
2022-11-23T22:06:47.583Z,31.38
2022-11-23T22:09:15.812Z,31.30
2022-11-23T22:11:45.212Z,34.60
2022-11-23T22:14:14.275Z,35.85
2022-11-23T22:16:46.123Z,47.67
2022-11-23T22:19:16.408Z,40.17
2022-11-23T22:21:45.683Z,47.63
2022-11-23T22:24:15.267Z,41.97
2022-11-23T22:26:43.990Z,44.22
2022-11-23T22:29:12.547Z,32.05
2022-11-23T22:31:41.100Z,42.88
2022-11-23T22:34:12.993Z,40.05
2022-11-23T22:36:41.447Z,52.83
2022-11-23T22:39:10.307Z,42.25
2022-11-23T22:41:39.194Z,42.45
2022-11-23T22:44:09.537Z,37.78
2022-11-23T22:46:38.729Z,37.25
2022-11-23T22:49:07.380Z,40.78
2022-11-23T22:51:37.013Z,38.80
2022-11-23T22:54:05.410Z,41.20
2022-11-23T22:56:33.945Z,40.90
2022-11-23T22:59:01.950Z,42.13
2022-11-23T23:01:31.669Z,37.10
2022-11-23T23:04:02.108Z,48.60
2022-11-23T23:06:33.722Z,37.63
2022-11-23T23:09:05.615Z,37.83
2022-11-23T23:11:35.464Z,43.75
2022-11-23T23:14:03.833Z,39.35
2022-11-23T23:16:31.971Z,36.15
2022-11-23T23:19:00.540Z,38.05
2022-11-23T23:21:29.904Z,39.85
2022-11-23T23:24:00.034Z,43.65
2022-11-23T23:26:30.429Z,42.72
2022-11-23T23:28:59.790Z,32.92
2022-11-23T23:31:29.080Z,38.92
2022-11-23T23:33:57.188Z,39.72
2022-11-23T23:36:25.701Z,30.38
2022-11-23T23:38:53.834Z,30.40
2022-11-23T23:41:22.211Z,37.22
2022-11-23T23:43:51.864Z,33.50
2022-11-23T23:46:20.047Z,41.20
2022-11-23T23:48:48.093Z,34.40
2022-11-23T23:51:18.490Z,33.40
2022-11-23T23:53:47.095Z,34.60
2022-11-23T23:56:17.218Z,28.80
2022-11-23T23:58:46.234Z,35.97
